Time;durP1;ratioP1;P1;durP2;ratioP2;P2;SDS_P1;SDS_P2;PMS_P1;PMS_P2;Temp;Humidity;BMP_temperature;BMP_pressure;BME280_temperature;BME280_humidity;BME280_pressure;Samples;Min_cycle;Max_cycle;Signal;HPM_P1;HPM_P2
2023/01/05 00:01:54;;;;;;;2.97;1.67;;;;;;;11.24;nan;100611.25;6256433;28;20223;-73
2023/01/05 00:05:17;;;;;;;2.17;1.40;;;;;;;11.39;nan;100605.38;6262550;28;20226;-74
2023/01/05 00:08:41;;;;;;;3.30;2.30;;;;;;;11.22;nan;100609.72;6266121;28;20235;-73
2023/01/05 00:22:58;;;;;;;2.37;1.50;;;;;;;11.32;nan;100613.22;6280063;28;20222;-74
2023/01/05 00:26:19;;;;;;;8.90;2.20;;;;;;;11.41;nan;100622.28;6281178;28;20215;-74
2023/01/05 00:29:40;;;;;;;6.27;1.53;;;;;;;11.56;nan;100620.78;6266255;28;20238;-74
2023/01/05 00:33:01;;;;;;;2.03;1.90;;;;;;;11.21;nan;100597.19;6273038;28;20232;-73
2023/01/05 00:36:22;;;;;;;1.93;1.40;;;;;;;11.31;nan;100638.50;6281147;28;20223;-74
2023/01/05 00:39:45;;;;;;;3.50;1.23;;;;;;;11.45;nan;100624.53;6267351;28;20235;-75
2023/01/05 00:43:05;;;;;;;2.17;1.30;;;;;;;11.37;nan;100629.81;6279366;28;20222;-75
2023/01/05 00:46:26;;;;;;;2.33;1.30;;;;;;;11.51;nan;100640.16;6267007;28;20803;-73
2023/01/05 00:49:47;;;;;;;5.37;2.13;;;;;;;11.28;nan;100628.00;6281889;28;20285;-74
2023/01/05 00:53:08;;;;;;;3.70;2.10;;;;;;;11.44;nan;100651.66;6265160;28;20235;-73
2023/01/05 00:56:30;;;;;;;6.67;1.77;;;;;;;11.53;nan;100648.09;6264427;28;20246;-74
2023/01/05 00:59:51;;;;;;;4.30;1.67;;;;;;;11.37;nan;100637.91;6277064;28;20267;-73
2023/01/05 01:03:11;;;;;;;1.57;1.27;;;;;;;11.38;nan;100625.25;6278606;28;20310;-74
2023/01/05 01:06:32;;;;;;;1.90;1.00;;;;;;;11.57;nan;100650.34;6255568;28;20326;-74
2023/01/05 01:09:53;;;;;;;3.53;1.37;;;;;;;11.55;nan;100655.03;6279987;28;20243;-74
2023/01/05 01:13:16;;;;;;;4.23;2.17;;;;;;;11.24;nan;100657.09;6269594;28;20254;-75
2023/01/05 01:16:36;;;;;;;4.43;1.90;;;;;;;11.35;nan;100661.50;6259304;28;20231;-75
2023/01/05 01:19:57;;;;;;;2.33;1.33;;;;;;;11.33;nan;100655.38;6277864;28;20235;-73
2023/01/05 01:23:18;;;;;;;1.70;0.83;;;;;;;11.32;nan;100658.25;6257824;28;20223;-74
2023/01/05 01:26:39;;;;;;;1.20;1.20;;;;;;;11.50;nan;100667.28;6276504;28;20234;-72
2023/01/05 01:30:01;;;;;;;2.70;1.50;;;;;;;11.34;nan;100676.00;6260196;28;20279;-74
2023/01/05 01:33:22;;;;;;;3.47;1.23;;;;;;;11.41;nan;100678.97;6253229;28;20226;-74
2023/01/05 01:36:43;;;;;;;3.23;2.33;;;;;;;11.27;nan;100673.03;6267224;28;20396;-74
2023/01/05 01:40:07;;;;;;;2.27;1.67;;;;;;;11.36;nan;100684.78;6264267;28;21131;-75
2023/01/05 01:43:47;;;;;;;1.33;1.13;;;;;;;11.48;nan;100680.06;6276072;28;20596;-74
2023/01/05 01:47:16;;;;;;;3.17;1.27;;;;;;;11.36;nan;100694.72;6253015;28;20242;-73
2023/01/05 01:50:42;;;;;;;10.50;2.37;;;;;;;11.28;nan;100695.47;6261071;28;20669;-73
2023/01/05 01:54:06;;;;;;;1.90;0.80;;;;;;;11.19;nan;100705.28;6276960;28;20227;-74
2023/01/05 01:57:28;;;;;;;1.40;1.00;;;;;;;11.38;nan;100692.75;6280236;28;20235;-74
2023/01/05 02:00:49;;;;;;;3.13;1.60;;;;;;;11.34;nan;100708.38;6276661;28;21167;-73
2023/01/05 02:04:12;;;;;;;3.17;1.03;;;;;;;11.49;nan;100720.44;6277343;28;20825;-74
2023/01/05 02:07:37;;;;;;;3.47;1.20;;;;;;;11.11;nan;100712.38;6265231;28;20557;-75
2023/01/05 02:11:16;;;;;;;2.97;2.47;;;;;;;11.34;nan;100721.88;6277859;28;20258;-74
2023/01/05 02:14:48;;;;;;;0.83;0.83;;;;;;;11.20;nan;100720.47;6266719;28;20235;-74
2023/01/05 02:18:23;;;;;;;4.10;2.07;;;;;;;11.28;nan;100700.88;6262651;28;20222;-75
2023/01/05 02:21:57;;;;;;;5.07;1.70;;;;;;;11.12;nan;100712.25;6262531;28;20234;-74
2023/01/05 02:25:44;;;;;;;2.30;1.60;;;;;;;11.20;nan;100701.56;6275196;28;20235;-74
2023/01/05 02:29:41;;;;;;;1.57;1.30;;;;;;;11.10;nan;100716.94;6255846;28;20246;-76
2023/01/05 02:33:15;;;;;;;7.90;2.90;;;;;;;10.91;nan;100698.06;6255705;28;20250;-75
2023/01/05 02:36:45;;;;;;;1.17;1.17;;;;;;;11.03;nan;100709.56;6262818;28;20219;-75
2023/01/05 02:40:13;;;;;;;2.27;1.33;;;;;;;10.93;nan;100706.84;6271743;28;20236;-74
2023/01/05 02:43:34;;;;;;;4.57;1.23;;;;;;;10.97;nan;100708.28;6272997;28;20330;-75
2023/01/05 02:47:00;;;;;;;3.50;1.10;;;;;;;10.96;nan;100714.66;6271269;28;20227;-75
2023/01/05 02:50:28;;;;;;;2.70;1.63;;;;;;;10.96;nan;100717.38;6275599;28;20247;-75
2023/01/05 02:53:55;;;;;;;4.00;1.23;;;;;;;10.91;nan;100716.94;6272975;28;20568;-73
2023/01/05 02:57:20;;;;;;;2.03;0.63;;;;;;;10.93;nan;100722.22;6269951;28;20230;-74
2023/01/05 03:00:44;;;;;;;1.10;1.07;;;;;;;10.82;nan;100728.59;6253854;28;20235;-75
2023/01/05 03:04:07;;;;;;;1.57;0.90;;;;;;;10.94;nan;100730.16;6254503;28;20226;-74
2023/01/05 03:07:33;;;;;;;0.87;0.83;;;;;;;10.99;nan;100737.81;6256516;28;20247;-74
2023/01/05 03:14:45;;;;;;;9.33;1.33;;;;;;;10.88;nan;100738.81;6262853;28;20231;-74
2023/01/05 03:18:10;;;;;;;4.63;1.97;;;;;;;10.94;nan;100730.16;6255670;28;20231;-74
2023/01/05 03:36:30;;;;;;;3.80;1.20;;;;;;;10.90;nan;100744.91;6272050;28;20227;-75
2023/01/05 03:39:51;;;;;;;5.73;1.50;;;;;;;10.80;nan;100752.16;6265358;28;20235;-74
2023/01/05 03:43:15;;;;;;;2.77;0.87;;;;;;;10.78;nan;100756.84;6256976;28;20231;-74
2023/01/05 03:46:39;;;;;;;1.90;1.27;;;;;;;10.91;nan;100757.38;6256249;28;20503;-74
2023/01/05 03:50:00;;;;;;;1.40;0.70;;;;;;;10.77;nan;100774.00;6274428;28;20785;-74
2023/01/05 03:53:22;;;;;;;2.63;1.20;;;;;;;10.79;nan;100769.31;6270074;28;20226;-73
2023/01/05 03:56:44;;;;;;;0.70;0.70;;;;;;;10.86;nan;100769.59;6266943;28;20235;-74
2023/01/05 04:00:09;;;;;;;0.83;0.80;;;;;;;10.68;nan;100777.50;6267526;28;20238;-72
2023/01/05 04:03:39;;;;;;;2.90;0.90;;;;;;;10.81;nan;100777.25;6280270;28;20250;-75
2023/01/05 04:07:02;;;;;;;1.67;1.07;;;;;;;10.49;nan;100785.59;6284583;28;20569;-74
2023/01/05 04:10:26;;;;;;;0.90;0.90;;;;;;;10.46;nan;100799.31;6266999;28;20211;-76
2023/01/05 04:13:48;;;;;;;2.20;1.13;;;;;;;10.64;nan;100788.75;6266564;28;20223;-75
2023/01/05 04:17:11;;;;;;;4.17;2.33;;;;;;;10.48;nan;100785.69;6274412;28;20247;-74
2023/01/05 04:20:33;;;;;;;2.63;1.13;;;;;;;10.35;nan;100777.84;6257842;28;20227;-73
2023/01/05 04:23:54;;;;;;;1.83;1.53;;;;;;;10.37;nan;100806.38;6241549;28;20226;-74
2023/01/05 04:27:15;;;;;;;1.63;1.53;;;;;;;10.28;nan;100803.66;6275310;28;20624;-75
2023/01/05 04:30:37;;;;;;;4.10;1.67;;;;;;;10.39;nan;100804.41;6261549;28;20227;-75
2023/01/05 04:33:59;;;;;;;15.30;1.47;;;;;;;10.14;nan;100810.25;6272246;28;20227;-75
2023/01/05 04:37:22;;;;;;;1.57;0.90;;;;;;;10.10;nan;100805.22;6266174;28;20238;-74
2023/01/05 04:40:47;;;;;;;4.33;1.23;;;;;;;10.17;nan;100817.22;6266049;28;20325;-75
2023/01/05 04:44:09;;;;;;;1.40;1.03;;;;;;;10.13;nan;100824.72;6265829;28;20231;-74
2023/01/05 04:47:29;;;;;;;0.97;0.77;;;;;;;10.09;nan;100817.00;6272312;28;20322;-74
2023/01/05 04:50:56;;;;;;;1.77;1.00;;;;;;;10.16;nan;100823.56;6265789;28;20635;-74
2023/01/05 04:54:23;;;;;;;1.70;0.80;;;;;;;10.13;nan;100830.13;6264719;28;20546;-73
2023/01/05 04:57:44;;;;;;;3.80;1.67;;;;;;;10.28;nan;100834.13;6265344;28;20231;-73
2023/01/05 05:01:07;;;;;;;1.43;1.33;;;;;;;10.29;nan;100833.16;6258836;28;20223;-75
2023/01/05 05:04:30;;;;;;;3.67;1.60;;;;;;;10.29;nan;100849.31;6265114;28;20549;-74
2023/01/05 05:07:53;;;;;;;2.30;0.90;;;;;;;10.45;nan;100855.06;6277433;28;20604;-74
2023/01/05 05:11:19;;;;;;;2.23;1.00;;;;;;;10.34;nan;100865.09;6277351;28;20231;-72
2023/01/05 05:14:42;;;;;;;2.53;1.10;;;;;;;10.35;nan;100853.31;6264986;28;20762;-76
2023/01/05 05:18:03;;;;;;;3.90;2.23;;;;;;;10.38;nan;100862.00;6260180;28;20223;-74
2023/01/05 05:21:26;;;;;;;2.73;1.30;;;;;;;10.31;nan;100857.25;6264269;28;20227;-73
2023/01/05 05:24:49;;;;;;;2.27;1.43;;;;;;;10.25;nan;100858.66;6284522;28;20223;-74
2023/01/05 05:28:10;;;;;;;5.73;2.87;;;;;;;10.32;nan;100869.75;6257682;28;20230;-74
2023/01/05 05:31:31;;;;;;;1.13;1.03;;;;;;;10.40;nan;100876.19;6271242;28;20239;-74
2023/01/05 05:34:52;;;;;;;2.60;0.87;;;;;;;10.06;nan;100879.22;6274923;28;20219;-75
2023/01/05 05:38:13;;;;;;;2.33;1.90;;;;;;;10.26;nan;100897.25;6275372;28;20314;-74
2023/01/05 05:41:35;;;;;;;2.17;1.10;;;;;;;10.30;nan;100890.59;6276635;28;20258;-74
2023/01/05 05:44:56;;;;;;;2.30;1.13;;;;;;;10.13;nan;100899.28;6264064;28;20759;-74
2023/01/05 05:48:17;;;;;;;3.27;1.00;;;;;;;10.11;nan;100898.56;6278722;28;20320;-74
2023/01/05 05:51:38;;;;;;;2.50;0.90;;;;;;;10.22;nan;100911.97;6276824;28;20226;-73
2023/01/05 05:54:59;;;;;;;1.50;0.97;;;;;;;10.26;nan;100914.22;6278579;28;20227;-74
2023/01/05 05:58:21;;;;;;;1.30;1.07;;;;;;;10.11;nan;100920.13;6274837;28;20220;-73
2023/01/05 06:01:42;;;;;;;2.40;1.57;;;;;;;10.22;nan;100920.88;6268338;28;20227;-74
2023/01/05 06:05:03;;;;;;;0.63;0.60;;;;;;;10.16;nan;100913.34;6272678;28;20506;-74
2023/01/05 06:08:26;;;;;;;2.70;1.23;;;;;;;10.10;nan;100934.53;6274156;28;20231;-74
2023/01/05 06:11:46;;;;;;;3.50;2.50;;;;;;;10.00;nan;100918.31;6271646;28;20231;-74
2023/01/05 06:15:10;;;;;;;1.50;1.40;;;;;;;10.07;nan;100926.72;6275457;28;20267;-74
2023/01/05 06:18:31;;;;;;;1.50;1.40;;;;;;;10.25;nan;100941.31;6273864;28;20255;-73
2023/01/05 06:21:52;;;;;;;3.90;2.73;;;;;;;10.13;nan;100943.25;6274371;28;20314;-75
2023/01/05 06:25:12;;;;;;;8.80;2.40;;;;;;;10.11;nan;100944.34;6275633;28;20223;-74
2023/01/05 06:28:33;;;;;;;4.93;1.53;;;;;;;10.14;nan;100949.47;6269273;28;20222;-74
2023/01/05 06:31:55;;;;;;;1.60;1.20;;;;;;;10.19;nan;100953.50;6267649;28;20231;-74
2023/01/05 06:35:17;;;;;;;5.40;2.93;;;;;;;10.21;nan;100965.00;6270608;28;20223;-75
2023/01/05 06:38:38;;;;;;;1.77;1.30;;;;;;;10.26;nan;100964.59;6253663;28;20283;-72
2023/01/05 06:41:58;;;;;;;7.07;2.40;;;;;;;9.98;nan;100963.38;6269307;28;20227;-73
2023/01/05 06:45:19;;;;;;;3.20;1.30;;;;;;;10.56;nan;100970.00;6258870;28;20235;-69
2023/01/05 06:48:42;;;;;;;10.40;3.07;;;;;;;10.65;nan;100981.84;6272589;28;20227;-69
2023/01/05 06:52:03;;;;;;;1.77;1.17;;;;;;;10.65;nan;100974.59;6254591;28;20235;-69
2023/01/05 06:55:23;;;;;;;4.57;1.70;;;;;;;10.27;nan;100983.31;6269157;28;20219;-73
2023/01/05 06:58:44;;;;;;;2.10;1.20;;;;;;;10.27;nan;100998.63;6265863;28;20230;-73
2023/01/05 07:02:06;;;;;;;1.80;1.47;;;;;;;10.09;nan;101019.03;6266864;28;20246;-74
2023/01/05 07:05:28;;;;;;;3.33;1.93;;;;;;;10.12;nan;101008.00;6270289;28;20325;-73
2023/01/05 07:08:49;;;;;;;5.23;2.13;;;;;;;9.95;nan;101024.72;6273650;28;20516;-74
2023/01/05 07:12:10;;;;;;;4.83;1.10;;;;;;;10.18;nan;101024.50;6262800;28;20307;-73
2023/01/05 07:15:31;;;;;;;2.57;1.33;;;;;;;10.09;nan;101014.50;6259039;28;22571;-73
2023/01/05 07:18:51;;;;;;;4.50;1.47;;;;;;;10.18;nan;101023.69;6264971;28;20239;-72
2023/01/05 07:22:14;;;;;;;4.03;1.50;;;;;;;10.16;nan;101023.78;6276910;28;20227;-72
2023/01/05 07:25:34;;;;;;;4.50;1.37;;;;;;;10.06;nan;101028.22;6281158;28;20227;-76
2023/01/05 07:28:57;;;;;;;10.17;1.57;;;;;;;10.34;nan;101042.94;6246973;28;20227;-76
2023/01/05 07:32:18;;;;;;;5.10;1.23;;;;;;;10.03;nan;101060.81;6266164;28;20227;-75
2023/01/05 07:35:39;;;;;;;11.70;2.90;;;;;;;10.25;nan;101059.88;6277172;28;20235;-75
2023/01/05 07:39:01;;;;;;;3.80;1.50;;;;;;;10.29;nan;101056.78;6264461;28;21881;-74
2023/01/05 07:42:22;;;;;;;10.70;1.90;;;;;;;10.24;nan;101072.47;6277653;28;22197;-72
2023/01/05 07:45:45;;;;;;;3.87;2.17;;;;;;;10.30;nan;101079.22;6270290;28;20235;-71
2023/01/05 07:49:05;;;;;;;3.23;1.20;;;;;;;10.19;nan;101081.94;6277301;28;20232;-72
2023/01/05 07:52:28;;;;;;;3.60;1.30;;;;;;;10.03;nan;101076.97;6269545;28;20243;-74
2023/01/05 07:55:57;;;;;;;3.03;1.43;;;;;;;10.06;nan;101081.22;6267450;28;20231;-78
2023/01/05 07:59:18;;;;;;;6.20;1.83;;;;;;;10.25;nan;101084.97;6280039;28;20226;-74
2023/01/05 08:02:39;;;;;;;2.90;2.37;;;;;;;10.53;nan;101088.91;6269779;28;20254;-72
2023/01/05 08:06:03;;;;;;;6.57;1.63;;;;;;;10.53;nan;101101.50;6280982;28;20254;-74
2023/01/05 08:16:44;;;;;;;2.47;2.27;;;;;;;10.32;nan;101121.22;6264894;28;20259;-70
2023/01/05 08:20:06;;;;;;;7.30;2.73;;;;;;;10.35;nan;101136.25;6282934;28;20223;-71
2023/01/05 08:23:28;;;;;;;2.50;1.33;;;;;;;10.39;nan;101157.44;6273133;28;20224;-69
2023/01/05 08:26:49;;;;;;;2.67;2.47;;;;;;;10.15;nan;101167.56;6277345;28;20227;-72
2023/01/05 08:30:13;;;;;;;3.97;1.80;;;;;;;10.25;nan;101167.63;6277242;28;20486;-72
2023/01/05 08:33:34;;;;;;;9.60;2.47;;;;;;;10.17;nan;101173.69;6264744;28;20863;-73
2023/01/05 08:36:55;;;;;;;3.13;1.63;;;;;;;10.22;nan;101193.00;6280081;28;20250;-70
2023/01/05 08:40:16;;;;;;;7.90;2.13;;;;;;;10.14;nan;101191.91;6282371;28;20721;-70
2023/01/05 08:43:36;;;;;;;11.30;2.27;;;;;;;10.39;nan;101207.75;6280744;28;20227;-70
2023/01/05 08:46:59;;;;;;;3.40;2.33;;;;;;;10.44;nan;101213.66;6281142;28;20223;-69
2023/01/05 08:50:19;;;;;;;10.53;3.37;;;;;;;10.29;nan;101231.06;6280146;28;20318;-70
2023/01/05 08:53:40;;;;;;;3.77;1.40;;;;;;;10.20;nan;101245.31;6285473;28;20223;-70
2023/01/05 08:57:01;;;;;;;3.03;1.67;;;;;;;9.99;nan;101255.09;6282179;28;20243;-70
2023/01/05 09:00:22;;;;;;;4.27;1.67;;;;;;;10.13;nan;101268.34;6284559;28;20227;-71
2023/01/05 09:03:44;;;;;;;2.97;1.70;;;;;;;9.98;nan;101262.31;6282485;28;20252;-73
2023/01/05 09:07:06;;;;;;;4.73;1.80;;;;;;;9.94;nan;101270.75;6271092;28;20263;-70
2023/01/05 09:10:26;;;;;;;4.37;2.17;;;;;;;9.93;nan;101269.88;6256911;28;20230;-72
2023/01/05 09:13:49;;;;;;;4.60;3.20;;;;;;;10.10;nan;101290.97;6283160;28;20876;-72
2023/01/05 09:17:10;;;;;;;1.93;1.70;;;;;;;10.26;nan;101293.31;6278735;28;20263;-71
2023/01/05 09:20:32;;;;;;;6.03;1.60;;;;;;;10.25;nan;101305.91;6279110;28;20671;-72
2023/01/05 09:23:53;;;;;;;3.27;1.20;;;;;;;10.24;nan;101304.19;6266327;28;20235;-70
2023/01/05 09:27:14;;;;;;;2.00;1.83;;;;;;;10.23;nan;101317.78;6278880;28;20314;-73
2023/01/05 09:30:36;;;;;;;2.13;1.30;;;;;;;10.05;nan;101309.34;6263877;28;20224;-74
2023/01/05 09:33:57;;;;;;;5.13;1.43;;;;;;;10.33;nan;101322.31;6245688;28;20246;-74
2023/01/05 09:37:20;;;;;;;2.80;1.73;;;;;;;10.86;nan;101339.53;6245464;28;20231;-71
2023/01/05 09:40:43;;;;;;;4.67;1.40;;;;;;;10.90;nan;101338.28;6252046;28;20219;-71
2023/01/05 09:44:11;;;;;;;2.17;1.90;;;;;;;10.71;nan;101342.59;6266317;28;20223;-71
2023/01/05 09:47:36;;;;;;;7.47;3.63;;;;;;;10.64;nan;101353.03;6256661;28;20259;-71
2023/01/05 09:50:57;;;;;;;3.03;1.83;;;;;;;10.85;nan;101361.19;6261857;28;20306;-73
2023/01/05 09:54:21;;;;;;;4.70;1.57;;;;;;;10.85;nan;101364.75;6260283;28;22035;-73
2023/01/05 09:57:45;;;;;;;4.60;3.07;;;;;;;10.50;nan;101366.78;6259965;28;20251;-74
2023/01/05 10:01:09;;;;;;;2.10;1.50;;;;;;;10.50;nan;101379.38;6269192;28;20235;-70
2023/01/05 10:04:32;;;;;;;6.90;1.97;;;;;;;10.70;nan;101384.88;6274565;28;20608;-72
2023/01/05 10:07:57;;;;;;;6.23;2.00;;;;;;;12.55;nan;101389.66;6271158;28;20366;-73
2023/01/05 10:15:07;;;;;;;6.90;1.80;;;;;;;11.35;nan;101400.22;6276838;28;20223;-72
2023/01/05 10:18:30;;;;;;;6.60;2.20;;;;;;;11.54;nan;101393.09;6272562;28;20223;-71
2023/01/05 10:22:04;;;;;;;8.47;2.17;;;;;;;11.42;nan;101399.56;6268405;28;20258;-71
2023/01/05 10:25:33;;;;;;;7.17;1.87;;;;;;;11.22;nan;101412.00;6269081;28;20320;-72
2023/01/05 10:29:02;;;;;;;7.37;1.20;;;;;;;11.04;nan;101418.91;6277964;28;20223;-71
2023/01/05 10:32:25;;;;;;;5.23;3.30;;;;;;;11.39;nan;101412.47;6273842;28;20230;-72
2023/01/05 10:35:57;;;;;;;1.63;1.50;;;;;;;11.23;nan;101418.25;6277622;28;20259;-72
2023/01/05 10:39:27;;;;;;;2.93;1.47;;;;;;;11.04;nan;101431.53;6284208;28;20231;-70
2023/01/05 10:42:57;;;;;;;3.57;1.57;;;;;;;10.87;nan;101432.06;6280085;28;20636;-73
2023/01/05 10:46:20;;;;;;;4.73;1.73;;;;;;;11.16;nan;101439.50;6549920;22;20276;-74
2023/01/05 10:49:45;;;;;;;3.60;2.13;;;;;;;11.57;nan;101435.22;6268083;28;20223;-74
2023/01/05 10:53:10;;;;;;;2.67;1.10;;;;;;;11.78;nan;101437.00;6248255;28;20597;-72
2023/01/05 10:56:31;;;;;;;4.77;2.37;;;;;;;12.66;nan;101445.50;6258545;28;20215;-71
2023/01/05 10:59:55;;;;;;;3.40;1.80;;;;;;;13.03;nan;101437.66;6268036;28;20239;-70
2023/01/05 11:03:19;;;;;;;4.40;1.60;;;;;;;16.68;nan;101434.09;6247393;28;20227;-70
2023/01/05 11:06:39;;;;;;;2.45;1.55;;;;;;;18.97;nan;101438.44;6249092;28;20751;-70
2023/01/05 11:10:01;;;;;;;3.60;1.93;;;;;;;17.63;nan;101448.25;6264137;28;20759;-68
2023/01/05 11:13:29;;;;;;;6.40;3.60;;;;;;;18.71;nan;101459.69;6263226;28;20226;-70
2023/01/05 11:16:53;;;;;;;3.50;1.57;;;;;;;15.28;nan;101464.94;6253496;28;20628;-69
2023/01/05 11:20:18;;;;;;;2.43;1.20;;;;;;;13.36;nan;101467.13;6263963;28;20231;-70
2023/01/05 11:23:41;;;;;;;7.23;1.30;;;;;;;12.59;nan;101469.53;6251910;28;20235;-70
2023/01/05 11:27:04;;;;;;;3.60;1.53;;;;;;;12.71;nan;101459.47;6263870;28;20725;-71
2023/01/05 11:30:25;;;;;;;3.43;1.60;;;;;;;12.18;nan;101466.88;6268507;28;20227;-70
2023/01/05 11:33:46;;;;;;;2.43;1.87;;;;;;;12.22;nan;101472.88;6265443;28;20247;-71
2023/01/05 11:37:22;;;;;;;1.77;1.40;;;;;;;11.72;nan;101482.56;6265785;28;20216;-70
2023/01/05 11:40:43;;;;;;;3.70;2.37;;;;;;;11.83;nan;101486.06;6277611;28;20230;-70
2023/01/05 11:44:05;;;;;;;3.87;1.57;;;;;;;11.80;nan;101490.88;6277636;28;20223;-71
2023/01/05 11:47:30;;;;;;;2.33;1.77;;;;;;;12.51;nan;101474.75;6264945;28;20618;-70
2023/01/05 11:50:53;;;;;;;3.17;1.90;;;;;;;15.61;nan;101480.63;6274475;28;20497;-70
2023/01/05 11:54:34;;;;;;;3.77;1.53;;;;;;;17.53;nan;101486.59;6273145;28;20322;-70
2023/01/05 11:58:10;;;;;;;3.20;1.83;;;;;;;14.52;nan;101495.97;6247419;28;20239;-68
2023/01/05 12:01:46;;;;;;;3.53;2.27;;;;;;;15.95;nan;101506.13;6253069;28;20551;-67
2023/01/05 12:05:21;;;;;;;1.50;1.40;;;;;;;16.62;nan;101500.94;6269845;28;20259;-68
2023/01/05 12:08:51;;;;;;;9.53;2.57;;;;;;;15.23;nan;101508.84;6257705;28;20231;-69
2023/01/05 12:12:41;;;;;;;8.37;1.30;;;;;;;13.59;nan;101515.50;6264789;28;20542;-72
2023/01/05 12:16:15;;;;;;;4.60;1.53;;;;;;;12.29;nan;101530.81;6258212;28;20251;-71
2023/01/05 12:19:55;;;;;;;2.23;1.53;;;;;;;12.34;nan;101532.16;6264184;28;20222;-71
2023/01/05 12:23:34;;;;;;;3.20;1.93;;;;;;;12.24;nan;101533.94;6242272;28;20235;-70
2023/01/05 12:27:08;;;;;;;6.33;1.83;;;;;;;11.74;nan;101532.78;6265720;28;20727;-71
2023/01/05 12:30:38;;;;;;;2.13;0.80;;;;;;;11.79;nan;101537.78;6274302;28;20223;-71
2023/01/05 12:34:16;;;;;;;4.53;1.93;;;;;;;11.78;nan;101538.78;6270970;28;20231;-70
2023/01/05 12:37:45;;;;;;;2.27;1.60;;;;;;;11.62;nan;101546.41;6265360;28;20341;-72
2023/01/05 12:41:26;;;;;;;1.93;1.27;;;;;;;11.84;nan;101549.06;6265943;28;20599;-73
2023/01/05 12:45:11;;;;;;;4.50;2.43;;;;;;;11.80;nan;101555.72;6280589;28;20235;-72
2023/01/05 12:48:38;;;;;;;4.50;1.30;;;;;;;11.65;nan;101559.66;6269289;28;20481;-72
2023/01/05 12:52:08;;;;;;;2.93;1.60;;;;;;;11.76;nan;101560.53;6258030;28;20219;-71
2023/01/05 12:55:37;;;;;;;5.37;2.33;;;;;;;11.65;nan;101579.41;6264366;28;20235;-71
2023/01/05 12:59:16;;;;;;;3.67;1.30;;;;;;;11.35;nan;101587.28;6263287;28;20226;-71
2023/01/05 13:02:40;;;;;;;2.07;1.87;;;;;;;11.18;nan;101596.75;6248562;28;20227;-68
2023/01/05 13:06:06;;;;;;;3.47;1.00;;;;;;;11.26;nan;101602.38;6260355;28;20383;-71
2023/01/05 13:09:31;;;;;;;2.13;1.60;;;;;;;11.27;nan;101605.94;6268188;28;20267;-70
2023/01/05 13:12:56;;;;;;;2.13;0.90;;;;;;;10.93;nan;101613.16;6257593;28;20636;-68
2023/01/05 13:16:21;;;;;;;5.03;1.03;;;;;;;11.09;nan;101611.00;6246041;28;21428;-71
2023/01/05 13:19:46;;;;;;;0.80;0.70;;;;;;;11.04;nan;101615.00;6252721;28;20235;-71
2023/01/05 13:23:17;;;;;;;1.27;0.73;;;;;;;11.19;nan;101635.41;6251823;28;20231;-70
2023/01/05 13:26:38;;;;;;;1.03;0.43;;;;;;;11.13;nan;101636.75;6261491;28;20689;-73
2023/01/05 13:30:02;;;;;;;4.27;1.30;;;;;;;11.04;nan;101637.47;6262007;28;20309;-73
2023/01/05 13:33:48;;;;;;;3.83;0.97;;;;;;;11.22;nan;101637.88;6259386;28;20235;-72
2023/01/05 13:37:34;;;;;;;2.10;0.77;;;;;;;11.11;nan;101649.50;6258929;28;20227;-70
2023/01/05 13:41:07;;;;;;;1.33;0.80;;;;;;;12.17;nan;101648.09;6274648;28;20231;-72
2023/01/05 13:44:51;;;;;;;1.13;1.03;;;;;;;12.41;nan;101648.75;6272879;28;20249;-70
2023/01/05 13:48:28;;;;;;;2.83;0.90;;;;;;;12.07;nan;101630.91;6266195;28;20232;-71
2023/01/05 13:51:56;;;;;;;2.50;1.07;;;;;;;11.64;nan;101633.56;6266784;28;20235;-70
2023/01/05 13:55:19;;;;;;;4.37;1.40;;;;;;;11.46;nan;101645.81;6276729;28;20881;-71
2023/01/05 13:58:44;;;;;;;0.83;0.73;;;;;;;11.24;nan;101654.81;6261718;28;20235;-70
2023/01/05 14:02:28;;;;;;;1.70;1.10;;;;;;;11.25;nan;101659.19;6258082;28;20227;-71
2023/01/05 14:05:53;;;;;;;1.63;0.70;;;;;;;11.64;nan;101660.56;6259229;28;20235;-71
2023/01/05 14:09:19;;;;;;;1.07;0.80;;;;;;;11.28;nan;101664.38;6270042;28;20250;-70
2023/01/05 14:12:46;;;;;;;2.50;0.90;;;;;;;11.30;nan;101680.44;6259540;28;20737;-70
2023/01/05 14:16:42;;;;;;;2.60;1.00;;;;;;;11.21;nan;101682.88;6260248;28;20254;-74
2023/01/05 14:20:35;;;;;;;1.17;1.03;;;;;;;11.16;nan;101701.25;6272287;28;20250;-70
2023/01/05 14:23:58;;;;;;;9.30;1.37;;;;;;;11.26;nan;101706.81;6182243;28;20238;-70
2023/01/05 14:27:21;;;;;;;2.30;1.07;;;;;;;11.21;nan;101715.28;6225744;28;20588;-71
2023/01/05 14:30:42;;;;;;;2.53;1.40;;;;;;;11.10;nan;101719.75;6261465;28;20503;-70
2023/01/05 14:34:08;;;;;;;6.13;5.43;;;;;;;11.34;nan;101731.38;6254266;28;20227;-74
2023/01/05 14:37:37;;;;;;;3.80;2.47;;;;;;;11.14;nan;101724.81;6262244;28;20254;-71
2023/01/05 14:40:59;;;;;;;5.97;1.80;;;;;;;11.05;nan;101738.16;6256390;28;20234;-70
2023/01/05 14:44:23;;;;;;;3.73;2.17;;;;;;;11.17;nan;101731.81;6270065;28;20338;-72
2023/01/05 14:47:47;;;;;;;18.77;4.47;;;;;;;11.17;nan;101750.72;6270335;28;20314;-69
2023/01/05 14:51:18;;;;;;;6.13;3.30;;;;;;;11.53;nan;101755.94;6272990;28;20232;-69
2023/01/05 14:55:17;;;;;;;14.47;3.47;;;;;;;11.69;nan;101756.47;6263707;28;20227;-67
2023/01/05 14:58:55;;;;;;;1.63;1.43;;;;;;;11.75;nan;101764.09;6251950;28;20226;-68
2023/01/05 15:02:22;;;;;;;1.00;0.87;;;;;;;11.63;nan;101762.34;6256560;28;20227;-68
2023/01/05 15:06:00;;;;;;;2.07;1.63;;;;;;;11.10;nan;101761.09;6263419;28;21688;-69
2023/01/05 15:09:47;;;;;;;10.83;2.47;;;;;;;10.77;nan;101769.06;6263362;28;20226;-69
2023/01/05 15:14:30;;;;;;;1.90;1.07;;;;;;;10.84;nan;101772.16;6250291;28;20284;-70
2023/01/05 15:17:48;;;;;;;3.13;2.10;;;;;;;10.81;nan;101789.44;6248151;28;20228;-71
2023/01/05 15:21:29;;;;;;;1.53;1.33;;;;;;;10.72;nan;101800.91;6262939;28;20239;-70
2023/01/05 15:25:28;;;;;;;2.40;2.20;;;;;;;10.85;nan;101799.03;6273678;28;20235;-71
2023/01/05 15:29:16;;;;;;;3.63;1.80;;;;;;;10.73;nan;101801.78;6197022;28;20223;-74
2023/01/05 15:32:42;;;;;;;1.93;1.40;;;;;;;10.81;nan;101800.22;6231247;28;20243;-74
2023/01/05 15:36:05;;;;;;;4.80;1.83;;;;;;;10.84;nan;101799.16;6253771;28;20219;-74
2023/01/05 15:39:30;;;;;;;2.60;2.40;;;;;;;10.83;nan;101798.28;6271228;28;20541;-73
2023/01/05 15:42:53;;;;;;;3.63;2.90;;;;;;;10.96;nan;101803.59;6269746;28;20736;-74
2023/01/05 15:46:20;;;;;;;3.50;3.17;;;;;;;11.01;nan;101813.06;6268584;28;20231;-73
2023/01/05 15:49:41;;;;;;;2.00;1.80;;;;;;;11.10;nan;101816.91;6280552;28;20873;-73
2023/01/05 15:53:02;;;;;;;2.30;0.87;;;;;;;11.22;nan;101822.22;6264599;28;20307;-73
2023/01/05 15:56:26;;;;;;;2.60;1.37;;;;;;;11.23;nan;101823.97;6270124;28;20228;-73
2023/01/05 15:59:49;;;;;;;4.00;1.90;;;;;;;11.06;nan;101828.91;6278018;28;20231;-74
2023/01/05 16:03:21;;;;;;;3.27;1.13;;;;;;;10.92;nan;101824.56;6267892;28;20231;-74
2023/01/05 16:06:44;;;;;;;1.13;1.03;;;;;;;10.91;nan;101825.53;6264370;28;20222;-73
2023/01/05 16:10:06;;;;;;;4.93;2.03;;;;;;;10.54;nan;101828.38;6277763;28;20226;-73
2023/01/05 16:13:33;;;;;;;1.10;0.90;;;;;;;10.85;nan;101827.81;6263993;28;20588;-74
2023/01/05 16:16:59;;;;;;;2.40;2.20;;;;;;;10.82;nan;101828.94;6269900;28;20231;-74
2023/01/05 16:20:24;;;;;;;5.30;1.10;;;;;;;10.71;nan;101833.38;6279553;28;20227;-74
2023/01/05 16:23:51;;;;;;;1.87;1.13;;;;;;;10.99;nan;101831.22;6258189;28;20227;-74
2023/01/05 16:27:13;;;;;;;1.90;1.07;;;;;;;10.74;nan;101828.66;6264945;28;20223;-74
2023/01/05 16:30:36;;;;;;;1.77;1.27;;;;;;;10.82;nan;101837.03;6273172;28;20231;-74
2023/01/05 16:34:11;;;;;;;1.27;1.17;;;;;;;10.96;nan;101830.59;6235733;28;20218;-74
2023/01/05 16:37:33;;;;;;;4.40;1.43;;;;;;;11.06;nan;101840.56;6259768;28;20220;-73
2023/01/05 16:40:59;;;;;;;1.07;1.07;;;;;;;10.98;nan;101842.13;6279261;28;20247;-74
2023/01/05 16:44:20;;;;;;;9.47;1.53;;;;;;;10.97;nan;101833.16;6279991;28;20235;-74
2023/01/05 16:47:41;;;;;;;3.13;2.10;;;;;;;10.86;nan;101838.53;6264717;28;21504;-73
2023/01/05 16:51:05;;;;;;;2.20;1.60;;;;;;;11.11;nan;101833.00;6268939;28;20555;-74
2023/01/05 16:54:35;;;;;;;2.17;0.93;;;;;;;10.93;nan;101836.22;6286519;28;20222;-74
2023/01/05 16:57:57;;;;;;;5.23;1.37;;;;;;;10.98;nan;101834.91;6274707;28;20230;-73
2023/01/05 17:01:24;;;;;;;2.00;1.43;;;;;;;10.92;nan;101838.06;6270558;28;20627;-74